createdAt,value
2023-04-28T00:00:56.037Z,13.90
2023-04-28T00:03:24.195Z,12.93
2023-04-28T00:05:54.537Z,13.90
2023-04-28T00:08:23.755Z,13.93
2023-04-28T00:10:51.840Z,13.50
2023-04-28T00:13:20.269Z,13.47
2023-04-28T00:15:48.310Z,13.67
2023-04-28T00:18:17.739Z,14.53
2023-04-28T00:20:46.044Z,14.93
2023-04-28T00:23:14.196Z,14.07
2023-04-28T00:25:42.223Z,14.60
2023-04-28T00:28:11.597Z,14.87
2023-04-28T00:30:39.671Z,14.50
2023-04-28T00:33:07.877Z,14.27
2023-04-28T00:35:37.379Z,15.77
2023-04-28T00:38:05.553Z,15.63
2023-04-28T00:40:37.046Z,15.50
2023-04-28T00:43:05.820Z,15.73
2023-04-28T00:45:34.037Z,14.60
2023-04-28T00:48:02.149Z,15.73
2023-04-28T00:50:30.337Z,15.13
2023-04-28T00:53:01.219Z,16.83
2023-04-28T00:55:32.701Z,16.27
2023-04-28T00:58:00.877Z,15.57
2023-04-28T01:00:28.861Z,16.63
2023-04-28T01:02:58.112Z,16.20
2023-04-28T01:05:27.930Z,16.70
2023-04-28T01:07:56.212Z,16.63
2023-04-28T01:10:25.867Z,17.03
2023-04-28T01:12:54.640Z,17.80
2023-04-28T01:15:23.202Z,18.53
2023-04-28T01:17:54.294Z,19.67
2023-04-28T01:20:22.432Z,20.20
2023-04-28T01:22:50.844Z,22.97
2023-04-28T01:25:24.164Z,22.53
2023-04-28T01:27:52.819Z,22.87
2023-04-28T01:30:21.097Z,23.10
2023-04-28T01:32:49.535Z,18.87
2023-04-28T01:35:17.674Z,18.67
2023-04-28T01:37:45.959Z,17.83
2023-04-28T01:40:14.721Z,18.67
2023-04-28T01:42:44.167Z,18.80
2023-04-28T01:45:12.857Z,18.90
2023-04-28T01:47:40.966Z,17.70
2023-04-28T01:50:09.465Z,17.03
2023-04-28T01:52:37.449Z,17.00
2023-04-28T01:55:06.528Z,17.47
2023-04-28T01:57:36.084Z,16.77
2023-04-28T02:00:07.419Z,16.43
2023-04-28T02:02:39.045Z,16.93
2023-04-28T02:05:07.870Z,17.40
2023-04-28T02:07:36.358Z,21.03
2023-04-28T02:10:05.851Z,19.87
2023-04-28T02:12:33.944Z,23.23
2023-04-28T02:15:02.085Z,21.50
2023-04-28T02:17:32.795Z,20.73
2023-04-28T02:20:00.817Z,21.83
2023-04-28T02:22:28.769Z,20.13
2023-04-28T02:24:56.732Z,20.10
2023-04-28T02:27:24.782Z,19.50
2023-04-28T02:29:52.788Z,19.63
2023-04-28T02:32:20.875Z,19.70
2023-04-28T02:34:55.713Z,19.87
2023-04-28T02:37:24.818Z,19.77
2023-04-28T02:39:53.350Z,19.00
2023-04-28T02:42:22.281Z,19.30
2023-04-28T02:44:50.349Z,19.67
2023-04-28T02:47:18.284Z,19.87
2023-04-28T02:49:46.680Z,22.53
2023-04-28T02:52:16.640Z,23.57
2023-04-28T02:54:48.698Z,25.60
2023-04-28T02:57:17.903Z,24.37
2023-04-28T02:59:46.215Z,22.60
2023-04-28T03:02:14.786Z,22.40
2023-04-28T03:04:42.843Z,21.83
2023-04-28T03:07:10.925Z,21.10
2023-04-28T03:09:42.270Z,21.83
2023-04-28T03:12:10.448Z,20.73
2023-04-28T03:14:38.414Z,20.97
2023-04-28T03:17:06.435Z,18.60
2023-04-28T03:19:34.498Z,18.90
2023-04-28T03:22:02.509Z,19.03
2023-04-28T03:24:32.797Z,19.57
2023-04-28T03:27:03.754Z,20.43
2023-04-28T03:29:32.117Z,20.53
2023-04-28T03:32:00.155Z,20.43
2023-04-28T03:34:28.588Z,19.30
2023-04-28T03:36:56.687Z,19.37
2023-04-28T03:39:29.601Z,32.07
2023-04-28T03:41:57.974Z,42.87
2023-04-28T03:44:53.591Z,46.57
2023-04-28T03:47:22.095Z,47.77
2023-04-28T03:49:50.346Z,42.77
2023-04-28T03:52:18.424Z,35.47
2023-04-28T03:54:46.948Z,29.87
2023-04-28T03:57:14.957Z,29.00
2023-04-28T03:59:42.922Z,27.33
2023-04-28T04:02:13.399Z,25.97
2023-04-28T04:04:41.533Z,30.63
2023-04-28T04:07:10.273Z,31.07
2023-04-28T04:09:38.326Z,31.10
2023-04-28T04:12:08.090Z,28.70
2023-04-28T04:14:36.091Z,26.27
2023-04-28T04:17:04.054Z,28.67
2023-04-28T04:19:33.880Z,25.17
2023-04-28T04:22:01.928Z,27.97
2023-04-28T04:24:30.061Z,27.63
2023-04-28T04:26:58.828Z,28.80
2023-04-28T04:29:37.774Z,25.60
2023-04-28T04:32:14.574Z,24.77
2023-04-28T04:34:54.018Z,20.63
2023-04-28T04:37:24.300Z,22.20
2023-04-28T04:40:03.452Z,21.87
2023-04-28T04:42:38.295Z,22.07
2023-04-28T04:45:15.851Z,21.33
2023-04-28T04:47:49.114Z,19.53
2023-04-28T04:50:26.532Z,20.37
2023-04-28T04:52:57.773Z,21.07
2023-04-28T04:55:31.113Z,19.97
2023-04-28T04:58:00.129Z,20.57
2023-04-28T05:00:59.243Z,19.50
2023-04-28T05:03:30.068Z,20.07
2023-04-28T05:06:05.119Z,18.83
2023-04-28T05:08:50.274Z,19.03
2023-04-28T05:11:21.964Z,18.53
2023-04-28T05:13:51.407Z,17.03
2023-04-28T05:16:25.078Z,16.60
2023-04-28T05:19:22.265Z,17.23
2023-04-28T05:21:55.382Z,16.93
2023-04-28T05:24:26.555Z,16.77
2023-04-28T05:26:55.995Z,16.23
2023-04-28T05:29:24.832Z,16.57
2023-04-28T05:31:52.937Z,17.07
2023-04-28T05:34:23.512Z,16.33
2023-04-28T05:36:53.607Z,15.63
2023-04-28T05:39:26.177Z,15.80
2023-04-28T05:41:56.455Z,15.83
2023-04-28T05:44:24.521Z,15.93
2023-04-28T05:46:52.902Z,14.33
2023-04-28T05:49:26.021Z,14.37
2023-04-28T05:51:55.571Z,15.37
2023-04-28T05:54:23.713Z,15.57
2023-04-28T05:56:54.660Z,14.90
2023-04-28T05:59:23.016Z,14.90
2023-04-28T06:01:51.852Z,14.47
2023-04-28T06:04:20.219Z,13.97
2023-04-28T06:06:50.618Z,14.40
2023-04-28T06:09:20.254Z,14.77
2023-04-28T06:11:48.428Z,13.30
2023-04-28T06:14:16.686Z,14.03
2023-04-28T06:16:45.035Z,11.93
2023-04-28T06:19:21.574Z,13.63
2023-04-28T06:21:50.422Z,12.10
2023-04-28T06:24:18.724Z,13.13
2023-04-28T06:26:48.283Z,12.87
2023-04-28T06:29:16.290Z,12.10
2023-04-28T06:31:44.272Z,12.27
2023-04-28T06:34:12.348Z,11.97
2023-04-28T06:36:41.821Z,11.63
2023-04-28T06:39:09.911Z,10.87
2023-04-28T06:41:37.869Z,8.60
2023-04-28T06:44:06.621Z,7.03
2023-04-28T06:46:37.460Z,5.90
2023-04-28T06:49:05.643Z,5.43
2023-04-28T06:51:33.641Z,5.63
2023-04-28T06:54:04.138Z,5.37
2023-04-28T06:56:32.188Z,5.43
2023-04-28T06:59:00.278Z,6.40
2023-04-28T07:01:28.530Z,6.27
2023-04-28T07:03:56.764Z,7.80
2023-04-28T07:06:25.022Z,6.37
2023-04-28T07:08:53.309Z,7.17
2023-04-28T07:11:23.396Z,6.83
2023-04-28T07:13:51.769Z,6.43
2023-04-28T07:16:21.538Z,6.57
2023-04-28T07:18:49.680Z,6.53
2023-04-28T07:21:17.654Z,6.57
2023-04-28T07:23:45.977Z,6.40
2023-04-28T07:26:16.438Z,5.97
2023-04-28T07:28:46.645Z,4.87
2023-04-28T07:31:14.764Z,5.13
2023-04-28T07:33:42.799Z,4.93
2023-04-28T07:36:11.078Z,3.77
2023-04-28T07:38:39.230Z,4.80
2023-04-28T07:41:10.940Z,5.33
2023-04-28T07:43:39.903Z,5.00
2023-04-28T07:46:09.975Z,4.40
2023-04-28T07:48:38.338Z,3.90
2023-04-28T07:51:06.588Z,3.37
2023-04-28T07:53:35.194Z,3.60
2023-04-28T07:56:03.353Z,3.10
2023-04-28T07:58:32.184Z,3.27
2023-04-28T08:01:00.281Z,2.63
2023-04-28T08:03:30.059Z,3.37
2023-04-28T08:05:59.192Z,4.20
2023-04-28T08:08:27.207Z,3.00
2023-04-28T08:10:55.202Z,2.67
2023-04-28T08:13:23.180Z,2.80
2023-04-28T08:15:51.566Z,2.53
2023-04-28T08:18:19.703Z,2.40
2023-04-28T08:20:48.999Z,2.83
2023-04-28T08:23:17.068Z,2.63
2023-04-28T08:25:45.143Z,2.27
2023-04-28T08:28:13.143Z,3.73
2023-04-28T08:30:41.172Z,2.03
2023-04-28T08:33:09.318Z,2.30
2023-04-28T08:35:37.450Z,2.47
2023-04-28T08:38:08.279Z,2.40
2023-04-28T08:40:36.947Z,2.37
2023-04-28T08:43:04.995Z,1.87
2023-04-28T08:45:42.518Z,2.03
2023-04-28T08:48:19.089Z,2.10
2023-04-28T08:50:51.296Z,2.60
2023-04-28T08:53:25.252Z,2.00
2023-04-28T08:55:56.859Z,2.20
2023-04-28T08:58:25.463Z,2.10
2023-04-28T09:00:54.468Z,1.70
2023-04-28T09:03:22.967Z,1.70
2023-04-28T09:05:51.428Z,1.87
2023-04-28T09:08:19.403Z,1.90
2023-04-28T09:10:48.739Z,1.77
2023-04-28T09:13:26.170Z,1.73
2023-04-28T09:16:01.485Z,1.70
2023-04-28T09:18:30.125Z,1.67
2023-04-28T09:21:05.385Z,1.73
2023-04-28T09:23:34.600Z,1.70
2023-04-28T09:26:06.427Z,1.63
2023-04-28T09:28:36.175Z,2.03
2023-04-28T09:31:04.380Z,1.70
2023-04-28T09:33:32.659Z,1.80
2023-04-28T09:36:00.808Z,2.20
2023-04-28T09:38:28.912Z,2.47
2023-04-28T09:40:58.833Z,2.20
2023-04-28T09:43:30.809Z,2.73
2023-04-28T09:46:01.927Z,1.90
2023-04-28T09:48:31.975Z,1.90
2023-04-28T09:51:00.957Z,1.90
2023-04-28T09:53:29.562Z,1.90
2023-04-28T09:55:59.222Z,2.17
2023-04-28T09:58:29.830Z,2.30
2023-04-28T10:00:59.226Z,2.13
2023-04-28T10:03:30.308Z,2.40
2023-04-28T10:05:59.566Z,2.30
2023-04-28T10:08:28.546Z,2.50
2023-04-28T10:10:57.843Z,2.50
2023-04-28T10:13:26.556Z,2.43
2023-04-28T10:15:58.179Z,2.40
2023-04-28T10:18:27.372Z,2.57
2023-04-28T10:21:01.169Z,2.50
2023-04-28T10:23:59.674Z,2.40
2023-04-28T10:26:52.549Z,2.30
2023-04-28T10:29:24.912Z,2.13
2023-04-28T10:32:23.020Z,2.53
2023-04-28T10:34:51.650Z,2.50
2023-04-28T10:37:20.026Z,2.33
2023-04-28T10:40:20.967Z,2.40
2023-04-28T10:42:56.345Z,2.27
2023-04-28T10:46:03.935Z,2.30
2023-04-28T10:48:56.205Z,2.43
2023-04-28T10:51:31.965Z,2.53
2023-04-28T10:54:20.033Z,2.60
2023-04-28T10:57:17.387Z,2.87
2023-04-28T10:59:45.496Z,2.50
2023-04-28T11:02:50.244Z,2.60
2023-04-28T11:05:20.634Z,2.53
2023-04-28T11:08:34.468Z,2.40
2023-04-28T11:11:19.418Z,3.07
2023-04-28T11:13:48.109Z,2.43
2023-04-28T11:16:18.319Z,2.77
2023-04-28T11:18:58.980Z,2.40
2023-04-28T11:21:31.250Z,2.63
2023-04-28T11:23:59.932Z,2.43
2023-04-28T11:26:29.103Z,2.50
2023-04-28T11:28:58.928Z,2.77
2023-04-28T11:31:29.005Z,2.83
2023-04-28T11:34:01.334Z,2.70
2023-04-28T11:36:39.192Z,2.53
2023-04-28T11:39:08.698Z,2.60
2023-04-28T11:41:37.451Z,2.93
2023-04-28T11:44:12.591Z,3.00
2023-04-28T11:46:47.040Z,2.57
2023-04-28T11:49:15.378Z,2.50
2023-04-28T11:51:46.881Z,2.57
2023-04-28T11:54:15.078Z,2.57
2023-04-28T11:56:44.785Z,2.60
2023-04-28T11:59:14.144Z,2.73
2023-04-28T12:01:49.827Z,2.40
2023-04-28T12:04:29.827Z,2.57
2023-04-28T12:07:04.798Z,2.73
2023-04-28T12:09:33.604Z,2.60
2023-04-28T12:12:04.594Z,2.70
2023-04-28T12:14:35.373Z,2.67
2023-04-28T12:17:04.158Z,2.50
2023-04-28T12:19:44.813Z,2.90
2023-04-28T12:22:17.492Z,2.97
2023-04-28T12:24:46.364Z,2.77
2023-04-28T12:27:20.315Z,3.23
2023-04-28T12:29:48.709Z,2.90
2023-04-28T12:32:17.411Z,3.10
2023-04-28T12:34:46.936Z,3.10
2023-04-28T12:37:17.025Z,3.10
2023-04-28T12:39:45.556Z,2.73
2023-04-28T12:42:13.868Z,3.00
2023-04-28T12:44:41.795Z,3.20
2023-04-28T12:47:11.078Z,3.30
2023-04-28T12:49:39.787Z,3.10
2023-04-28T12:52:07.976Z,3.40
2023-04-28T12:54:37.543Z,3.17
2023-04-28T12:57:06.627Z,3.23
2023-04-28T12:59:34.793Z,3.10
2023-04-28T13:02:02.985Z,3.17
2023-04-28T13:04:31.566Z,2.90
2023-04-28T13:06:59.985Z,3.10
2023-04-28T13:09:28.433Z,2.90
2023-04-28T13:11:58.628Z,3.60
2023-04-28T13:14:28.006Z,3.17
2023-04-28T13:16:56.196Z,3.27
2023-04-28T13:19:24.197Z,3.70
2023-04-28T13:21:52.301Z,3.13
2023-04-28T13:24:20.468Z,2.90
2023-04-28T13:26:48.550Z,3.17
2023-04-28T13:29:18.196Z,3.60
2023-04-28T13:31:46.338Z,3.83
2023-04-28T13:34:16.438Z,3.77
2023-04-28T13:36:44.808Z,3.50
2023-04-28T13:39:14.587Z,3.13
2023-04-28T13:41:42.905Z,3.33
2023-04-28T13:44:10.982Z,3.37
2023-04-28T13:46:40.337Z,3.50
2023-04-28T13:49:10.550Z,3.60
2023-04-28T13:51:38.937Z,4.03
2023-04-28T13:54:08.864Z,4.27
2023-04-28T13:56:37.459Z,3.93
2023-04-28T13:59:05.670Z,3.73
2023-04-28T14:01:33.886Z,3.73
2023-04-28T14:04:03.427Z,3.80
2023-04-28T14:06:33.663Z,3.87
2023-04-28T14:09:03.518Z,3.90
2023-04-28T14:11:31.568Z,3.90
2023-04-28T14:13:59.700Z,4.60
2023-04-28T14:16:28.056Z,4.13
2023-04-28T14:18:56.042Z,4.80
2023-04-28T14:21:25.719Z,4.27
2023-04-28T14:23:56.083Z,4.00
2023-04-28T14:26:39.656Z,3.93
2023-04-28T14:29:12.982Z,4.57
2023-04-28T14:31:41.366Z,3.50
2023-04-28T14:34:09.522Z,3.70
2023-04-28T14:36:39.367Z,3.63
2023-04-28T14:39:07.556Z,3.93
2023-04-28T14:41:35.465Z,4.20
2023-04-28T14:44:03.547Z,4.10
2023-04-28T14:46:31.674Z,4.03
2023-04-28T14:48:59.776Z,4.07
2023-04-28T14:51:27.753Z,3.57
2023-04-28T14:53:57.464Z,4.63
2023-04-28T14:56:25.516Z,4.00
2023-04-28T14:58:54.186Z,4.07
2023-04-28T15:01:22.261Z,4.17
2023-04-28T15:03:50.554Z,3.60
2023-04-28T15:06:18.714Z,3.93
2023-04-28T15:08:47.528Z,4.00
2023-04-28T15:11:16.914Z,4.10
2023-04-28T15:13:44.992Z,3.77
2023-04-28T15:16:15.610Z,4.03
2023-04-28T15:18:44.149Z,4.20
2023-04-28T15:21:12.223Z,4.27
2023-04-28T15:23:40.609Z,4.03
2023-04-28T15:26:10.758Z,4.40
2023-04-28T15:28:40.153Z,4.63
2023-04-28T15:31:08.205Z,4.10
2023-04-28T15:33:36.365Z,4.23
2023-04-28T15:36:05.154Z,4.10
2023-04-28T15:38:34.084Z,4.13
2023-04-28T15:41:02.356Z,4.00
2023-04-28T15:43:30.306Z,4.10
2023-04-28T15:46:01.006Z,4.20
2023-04-28T15:48:29.219Z,3.90
2023-04-28T15:50:57.418Z,4.30
2023-04-28T15:53:25.932Z,4.00
2023-04-28T15:55:53.973Z,4.13
2023-04-28T15:58:22.045Z,3.63
2023-04-28T16:00:50.059Z,3.93
2023-04-28T16:03:19.757Z,4.10
2023-04-28T16:05:48.115Z,4.50
2023-04-28T16:08:16.689Z,4.60
2023-04-28T16:10:44.905Z,3.93
2023-04-28T16:13:13.113Z,5.13
2023-04-28T16:15:41.862Z,4.33
2023-04-28T16:18:10.230Z,4.67
2023-04-28T16:20:39.660Z,4.10
2023-04-28T16:23:07.834Z,4.40
2023-04-28T16:25:36.434Z,4.50
2023-04-28T16:28:04.565Z,5.33
2023-04-28T16:30:33.077Z,5.00
2023-04-28T16:33:01.515Z,5.00
2023-04-28T16:35:30.176Z,4.20
2023-04-28T16:37:59.654Z,4.53
2023-04-28T16:40:28.873Z,4.40
2023-04-28T16:42:57.530Z,3.90
2023-04-28T16:45:25.575Z,4.07
2023-04-28T16:47:53.701Z,4.50
2023-04-28T16:50:21.851Z,4.03
2023-04-28T16:52:50.224Z,4.37
2023-04-28T16:55:19.616Z,4.27
2023-04-28T16:57:49.433Z,4.03
2023-04-28T17:00:18.401Z,4.00
2023-04-28T17:02:46.854Z,4.33
2023-04-28T17:05:15.290Z,4.20
2023-04-28T17:07:43.820Z,4.20
2023-04-28T17:10:12.572Z,3.97
2023-04-28T17:12:43.404Z,3.50
2023-04-28T17:15:17.069Z,3.60
2023-04-28T17:17:45.810Z,4.50
2023-04-28T17:20:16.996Z,4.20
2023-04-28T17:22:45.597Z,4.17
2023-04-28T17:25:14.346Z,4.70
2023-04-28T17:27:44.326Z,5.40
2023-04-28T17:30:13.415Z,5.00
2023-04-28T17:32:44.058Z,4.70
2023-04-28T17:35:12.424Z,4.70
2023-04-28T17:37:40.559Z,4.87
2023-04-28T17:40:10.134Z,4.50
2023-04-28T17:42:38.310Z,4.87
2023-04-28T17:45:09.519Z,5.00
2023-04-28T17:47:37.722Z,5.10
2023-04-28T17:50:07.064Z,5.90
2023-04-28T17:52:36.429Z,6.20
2023-04-28T17:55:04.616Z,5.63
2023-04-28T17:57:33.342Z,5.80
2023-04-28T18:00:01.697Z,5.87
2023-04-28T18:02:41.453Z,6.63
2023-04-28T18:05:10.089Z,9.03
2023-04-28T18:07:38.073Z,10.50
2023-04-28T18:10:06.852Z,10.37
2023-04-28T18:12:34.954Z,10.00
2023-04-28T18:15:02.980Z,9.87
2023-04-28T18:17:31.354Z,10.20
2023-04-28T18:20:00.806Z,10.60
2023-04-28T18:22:29.538Z,10.90
2023-04-28T18:25:08.481Z,13.90
2023-04-28T18:27:43.875Z,17.80
2023-04-28T18:30:12.525Z,16.03
2023-04-28T18:32:40.777Z,16.93
2023-04-28T18:35:10.901Z,15.90
2023-04-28T18:37:39.137Z,18.17
2023-04-28T18:40:07.832Z,18.37
2023-04-28T18:42:36.668Z,18.03
2023-04-28T18:45:05.715Z,18.93
2023-04-28T18:47:33.919Z,17.23
2023-04-28T18:50:02.523Z,16.70
2023-04-28T18:52:31.919Z,16.00
2023-04-28T18:55:00.672Z,16.77
2023-04-28T18:57:28.766Z,16.57
2023-04-28T18:59:59.839Z,16.53
2023-04-28T19:02:28.873Z,14.23
2023-04-28T19:04:57.861Z,13.10
2023-04-28T19:07:26.357Z,12.87
2023-04-28T19:09:55.970Z,12.87
2023-04-28T19:12:26.082Z,12.33
2023-04-28T19:14:57.091Z,13.00
2023-04-28T19:17:25.637Z,13.17
2023-04-28T19:19:56.846Z,13.83
2023-04-28T19:22:31.686Z,15.07
2023-04-28T19:25:01.292Z,13.83
2023-04-28T19:27:32.288Z,15.57
2023-04-28T19:30:00.551Z,15.70
2023-04-28T19:32:28.924Z,15.33
2023-04-28T19:34:57.039Z,13.63
2023-04-28T19:37:25.166Z,13.90
2023-04-28T19:39:53.700Z,12.90
2023-04-28T19:42:23.096Z,13.30
2023-04-28T19:44:56.189Z,12.83
2023-04-28T19:47:24.802Z,13.03
2023-04-28T19:49:53.277Z,13.00
2023-04-28T19:52:21.852Z,13.00
2023-04-28T19:54:50.307Z,13.10
2023-04-28T19:57:19.623Z,12.40
2023-04-28T19:59:50.033Z,12.87
2023-04-28T20:02:18.810Z,12.33
2023-04-28T20:04:47.707Z,12.47
2023-04-28T20:07:15.751Z,12.27
2023-04-28T20:09:44.456Z,12.83
2023-04-28T20:12:12.484Z,12.80
2023-04-28T20:14:40.501Z,12.63
2023-04-28T20:17:10.189Z,12.50
2023-04-28T20:19:38.671Z,13.50
2023-04-28T20:22:08.572Z,13.00
2023-04-28T20:24:38.473Z,12.80
2023-04-28T20:27:06.547Z,12.83
2023-04-28T20:29:35.648Z,13.20
2023-04-28T20:32:04.216Z,13.00
2023-04-28T20:34:33.616Z,12.87
2023-04-28T20:37:03.456Z,12.90
2023-04-28T20:39:31.640Z,12.80
2023-04-28T20:42:00.680Z,13.40
2023-04-28T20:44:28.813Z,12.23
2023-04-28T20:46:57.261Z,12.30
2023-04-28T20:49:25.485Z,12.47
2023-04-28T20:51:54.966Z,11.53
2023-04-28T20:54:22.992Z,12.13
2023-04-28T20:56:51.113Z,12.30
2023-04-28T20:59:19.169Z,11.30
2023-04-28T21:01:47.291Z,11.40
2023-04-28T21:04:15.828Z,12.27
2023-04-28T21:06:43.994Z,11.00
2023-04-28T21:09:13.929Z,11.27
2023-04-28T21:11:42.688Z,10.13
2023-04-28T21:14:11.375Z,10.50
2023-04-28T21:16:39.416Z,10.40
2023-04-28T21:19:07.619Z,10.53
2023-04-28T21:21:35.653Z,10.47
2023-04-28T21:24:03.974Z,10.00
2023-04-28T21:26:33.436Z,9.87
2023-04-28T21:29:01.487Z,10.40
2023-04-28T21:31:30.537Z,11.00
2023-04-28T21:33:58.757Z,10.67
2023-04-28T21:36:28.267Z,10.63
2023-04-28T21:38:56.662Z,11.13
2023-04-28T21:41:25.246Z,10.83
2023-04-28T21:43:54.672Z,11.33
2023-04-28T21:46:22.840Z,11.03
2023-04-28T21:48:50.895Z,11.33
2023-04-28T21:51:19.123Z,11.63
2023-04-28T21:53:47.258Z,11.47
2023-04-28T21:56:16.131Z,11.83
2023-04-28T21:58:45.061Z,11.97
2023-04-28T22:01:18.036Z,11.53
2023-04-28T22:03:46.662Z,11.20
2023-04-28T22:06:14.946Z,11.93
2023-04-28T22:08:43.184Z,12.77
2023-04-28T22:11:11.465Z,13.00
2023-04-28T22:13:39.647Z,11.73
2023-04-28T22:16:07.685Z,12.67
2023-04-28T22:18:37.279Z,12.73
2023-04-28T22:21:05.512Z,13.23
2023-04-28T22:23:33.609Z,12.70
2023-04-28T22:26:01.661Z,12.50
2023-04-28T22:28:30.181Z,13.07
2023-04-28T22:30:58.289Z,12.30
2023-04-28T22:33:26.278Z,11.93
2023-04-28T22:35:55.609Z,11.63
2023-04-28T22:38:23.860Z,11.80
2023-04-28T22:40:52.593Z,11.43
2023-04-28T22:43:20.584Z,10.57
2023-04-28T22:45:48.598Z,10.80
2023-04-28T22:48:16.740Z,11.67
2023-04-28T22:50:47.252Z,10.93
2023-04-28T22:53:16.709Z,10.47
2023-04-28T22:55:44.823Z,11.00
2023-04-28T22:58:12.786Z,10.87
2023-04-28T23:00:41.557Z,11.10
2023-04-28T23:03:09.735Z,9.90
2023-04-28T23:05:38.846Z,9.77
2023-04-28T23:08:06.813Z,9.50
2023-04-28T23:10:36.125Z,9.40
2023-04-28T23:13:04.151Z,9.27
2023-04-28T23:15:32.102Z,9.50
2023-04-28T23:18:00.071Z,9.43
2023-04-28T23:20:28.057Z,8.87
2023-04-28T23:22:58.217Z,9.33
2023-04-28T23:25:26.345Z,9.40
2023-04-28T23:27:55.627Z,9.97
2023-04-28T23:30:23.662Z,9.27
2023-04-28T23:32:51.648Z,8.47
2023-04-28T23:35:19.698Z,9.80
2023-04-28T23:37:47.677Z,9.40
2023-04-28T23:40:15.733Z,9.20
2023-04-28T23:42:43.787Z,9.30
2023-04-28T23:45:13.301Z,9.63
2023-04-28T23:47:41.821Z,9.07
2023-04-28T23:50:10.708Z,9.83
2023-04-28T23:52:40.356Z,8.90
2023-04-28T23:55:09.795Z,9.40
2023-04-28T23:57:38.864Z,9.13
